createdAt,value
2018-04-30T00:00:38.388Z,100482.97
2018-04-30T00:03:06.011Z,100475.16
2018-04-30T00:05:33.642Z,100468.20
2018-04-30T00:08:01.251Z,100466.03
2018-04-30T00:10:28.887Z,100458.21
2018-04-30T00:12:56.566Z,100455.16
2018-04-30T00:15:24.196Z,100451.25
2018-04-30T00:17:51.898Z,100446.91
2018-04-30T00:20:19.506Z,100438.66
2018-04-30T00:22:47.147Z,100437.36
2018-04-30T00:25:14.754Z,100433.89
2018-04-30T00:27:42.382Z,100433.88
2018-04-30T00:30:10.002Z,100430.84
2018-04-30T00:32:37.642Z,100423.00
2018-04-30T00:35:05.258Z,100423.89
2018-04-30T00:37:32.894Z,100424.32
2018-04-30T00:40:00.507Z,100423.90
2018-04-30T00:42:28.134Z,100423.87
2018-04-30T00:44:55.751Z,100415.66
2018-04-30T00:47:23.386Z,100408.70
2018-04-30T00:49:51.094Z,100405.66
2018-04-30T00:52:18.732Z,100397.39
2018-04-30T00:54:59.533Z,100398.71
2018-04-30T00:57:27.173Z,100401.32
2018-04-30T00:59:54.787Z,100395.69
2018-04-30T01:02:22.523Z,100382.67
2018-04-30T01:04:50.183Z,100380.08
2018-04-30T01:07:17.824Z,100375.30
2018-04-30T01:09:45.442Z,100364.89
2018-04-30T01:12:21.262Z,100364.88
2018-04-30T01:14:48.878Z,100353.62
2018-04-30T01:17:16.514Z,100345.37
2018-04-30T01:19:44.126Z,100340.59
2018-04-30T01:22:11.779Z,100344.48
2018-04-30T01:24:39.476Z,100340.17
2018-04-30T01:27:07.134Z,100339.73
2018-04-30T01:29:34.755Z,100339.30
2018-04-30T01:32:02.463Z,100340.14
2018-04-30T01:34:30.080Z,100334.95
2018-04-30T01:36:57.714Z,100327.12
2018-04-30T01:39:25.342Z,100331.03
2018-04-30T01:41:53.111Z,100318.45
2018-04-30T01:44:20.726Z,100311.49
2018-04-30T01:46:48.338Z,100305.44
2018-04-30T01:49:15.981Z,100300.65
2018-04-30T01:51:43.598Z,100297.62
2018-04-30T01:54:11.235Z,100297.62
2018-04-30T01:56:38.887Z,100298.05
2018-04-30T01:59:06.542Z,100285.03
2018-04-30T02:01:34.159Z,100285.90
2018-04-30T02:04:01.808Z,100288.09
2018-04-30T02:06:29.426Z,100284.17
2018-04-30T02:08:57.104Z,100281.11
2018-04-30T02:11:24.722Z,100277.23
2018-04-30T02:13:52.430Z,100269.84
2018-04-30T02:16:20.046Z,100268.55
2018-04-30T02:18:47.742Z,100256.39
2018-04-30T02:21:15.363Z,100253.36
2018-04-30T02:23:43.008Z,100251.16
2018-04-30T02:26:10.727Z,100247.26
2018-04-30T02:28:38.907Z,100241.63
2018-04-30T02:31:06.523Z,100232.53
2018-04-30T02:33:34.199Z,100233.39
2018-04-30T02:36:01.895Z,100228.61
2018-04-30T02:38:29.550Z,100223.39
2018-04-30T02:40:57.222Z,100216.45
2018-04-30T02:43:24.863Z,100214.72
2018-04-30T02:45:52.483Z,100200.84
2018-04-30T02:48:20.212Z,100195.63
2018-04-30T02:50:47.823Z,100188.69
2018-04-30T02:53:15.467Z,100183.05
2018-04-30T02:55:43.078Z,100184.38
2018-04-30T02:58:10.738Z,100181.77
2018-04-30T03:00:38.364Z,100171.34
2018-04-30T03:03:05.974Z,100170.95
2018-04-30T03:05:33.613Z,100165.73
2018-04-30T03:08:01.224Z,100167.91
2018-04-30T03:10:28.863Z,100161.41
2018-04-30T03:12:56.484Z,100157.50
2018-04-30T03:15:24.114Z,100151.41
2018-04-30T03:17:51.727Z,100144.91
2018-04-30T03:20:19.363Z,100140.14
2018-04-30T03:22:47.080Z,100136.25
2018-04-30T03:25:14.739Z,100125.83
2018-04-30T03:27:42.354Z,100118.47
2018-04-30T03:30:09.991Z,100108.91
2018-04-30T03:32:37.609Z,100100.27
2018-04-30T03:35:05.291Z,100100.69
2018-04-30T03:37:32.902Z,100095.05
2018-04-30T03:40:00.542Z,100094.18
2018-04-30T03:42:28.160Z,100092.44
2018-04-30T03:44:55.834Z,100079.84
2018-04-30T03:47:23.455Z,100076.39
2018-04-30T03:49:51.149Z,100074.23
2018-04-30T03:52:18.766Z,100074.20
2018-04-30T03:54:46.408Z,100068.13
2018-04-30T03:57:14.138Z,100058.16
2018-04-30T03:59:41.801Z,100057.27
2018-04-30T04:02:21.174Z,100048.13
2018-04-30T04:05:00.463Z,100042.47
2018-04-30T04:07:28.143Z,100040.70
2018-04-30T04:09:55.778Z,100043.72
2018-04-30T04:12:23.387Z,100049.33
2018-04-30T04:14:51.135Z,100048.88
2018-04-30T04:17:18.746Z,100032.77
2018-04-30T04:19:46.457Z,100033.56
2018-04-30T04:22:14.122Z,100032.23
2018-04-30T04:24:41.782Z,100023.98
2018-04-30T04:27:09.452Z,100019.59
2018-04-30T04:29:37.067Z,100023.05
2018-04-30T04:32:05.590Z,100019.56
2018-04-30T04:34:33.265Z,100015.61
2018-04-30T04:37:00.942Z,100007.34
2018-04-30T04:39:28.574Z,99999.08
2018-04-30T04:41:56.239Z,99995.13
2018-04-30T04:44:23.902Z,99992.91
2018-04-30T04:46:51.539Z,99992.02
2018-04-30T04:49:19.157Z,99999.76
2018-04-30T04:51:46.891Z,100005.35
2018-04-30T04:54:14.502Z,100002.70
2018-04-30T04:56:42.138Z,100000.91
2018-04-30T04:59:09.763Z,100002.59
2018-04-30T05:01:37.429Z,99985.17
2018-04-30T05:04:05.040Z,99981.62
2018-04-30T05:06:32.675Z,99976.41
2018-04-30T05:09:00.321Z,99972.42
2018-04-30T05:11:27.981Z,99961.52
2018-04-30T05:13:55.743Z,99955.81
2018-04-30T05:16:23.383Z,99946.66
2018-04-30T05:18:51.171Z,99945.71
2018-04-30T05:21:18.840Z,99942.15
2018-04-30T05:23:46.455Z,99938.59
2018-04-30T05:26:14.111Z,99937.20
2018-04-30T05:28:41.732Z,99926.70
2018-04-30T05:31:09.390Z,99926.58
2018-04-30T05:33:37.043Z,99930.38
2018-04-30T05:36:04.706Z,99935.48
2018-04-30T05:38:32.370Z,99933.13
2018-04-30T05:40:59.984Z,99925.98
2018-04-30T05:43:27.610Z,99923.64
2018-04-30T05:45:55.218Z,99920.86
2018-04-30T05:48:22.932Z,99914.20
2018-04-30T05:50:50.587Z,99917.12
2018-04-30T05:53:18.223Z,99912.11
2018-04-30T05:55:45.844Z,99910.64
2018-04-30T05:58:13.571Z,99911.80
2018-04-30T06:00:41.231Z,99893.39
2018-04-30T06:03:08.862Z,99887.17
2018-04-30T06:05:36.474Z,99879.63
2018-04-30T06:08:04.106Z,99876.89
2018-04-30T06:10:31.715Z,99873.29
2018-04-30T06:12:59.406Z,99873.12
2018-04-30T06:15:27.009Z,99854.64
2018-04-30T06:17:54.634Z,99862.30
2018-04-30T06:20:23.075Z,99861.64
2018-04-30T06:22:50.809Z,99852.75
2018-04-30T06:25:18.423Z,99844.72
2018-04-30T06:27:46.058Z,99839.75
2018-04-30T06:30:13.662Z,99839.56
2018-04-30T06:32:41.363Z,99832.83
2018-04-30T06:35:08.999Z,99824.80
2018-04-30T06:37:36.638Z,99821.20
2018-04-30T06:40:04.456Z,99819.69
2018-04-30T06:42:32.121Z,99821.73
2018-04-30T06:44:59.759Z,99812.85
2018-04-30T06:47:27.444Z,99814.41
2018-04-30T06:49:55.104Z,99815.97
2018-04-30T06:52:22.734Z,99820.58
2018-04-30T06:54:50.430Z,99808.94
2018-04-30T06:57:18.090Z,99797.28
2018-04-30T06:59:45.764Z,99793.92
2018-04-30T07:02:13.370Z,99776.98
2018-04-30T07:04:41.072Z,99764.94
2018-04-30T07:07:08.738Z,99756.80
2018-04-30T07:09:36.461Z,99749.16
2018-04-30T07:12:04.163Z,99750.66
2018-04-30T07:14:31.836Z,99748.14
2018-04-30T07:16:59.446Z,99753.10
2018-04-30T07:19:27.150Z,99749.77
2018-04-30T07:21:54.824Z,99749.97
2018-04-30T07:24:22.467Z,99745.78
2018-04-30T07:26:50.090Z,99742.82
2018-04-30T07:29:17.715Z,99741.17
2018-04-30T07:31:45.327Z,99729.97
2018-04-30T07:34:13.031Z,99732.25
2018-04-30T07:36:40.690Z,99737.62
2018-04-30T07:39:08.367Z,99734.63
2018-04-30T07:41:35.963Z,99728.90
2018-04-30T07:44:03.678Z,99722.64
2018-04-30T07:46:31.286Z,99712.44
2018-04-30T07:48:58.914Z,99726.70
2018-04-30T07:51:26.518Z,99717.39
2018-04-30T07:53:54.226Z,99709.34
2018-04-30T07:56:21.830Z,99697.06
2018-04-30T07:58:49.462Z,99686.91
2018-04-30T08:01:17.067Z,99682.31
2018-04-30T08:03:44.693Z,99682.88
2018-04-30T08:06:12.302Z,99694.78
2018-04-30T08:08:39.947Z,99695.73
2018-04-30T08:11:07.664Z,99696.30
2018-04-30T08:13:35.296Z,99694.98
2018-04-30T08:16:02.986Z,99693.17
2018-04-30T08:18:30.618Z,99697.77
2018-04-30T08:20:58.239Z,99705.42
2018-04-30T08:23:25.870Z,99702.93
2018-04-30T08:25:53.502Z,99702.33
2018-04-30T08:28:21.203Z,99689.91
2018-04-30T08:30:48.858Z,99679.77
2018-04-30T08:33:16.469Z,99686.52
2018-04-30T08:35:44.109Z,99689.64
2018-04-30T08:38:11.753Z,99689.49
2018-04-30T08:40:39.387Z,99689.11
2018-04-30T08:43:07.002Z,99687.80
2018-04-30T08:45:34.639Z,99682.49
2018-04-30T08:48:02.246Z,99680.21
2018-04-30T08:50:29.873Z,99672.44
2018-04-30T08:52:57.484Z,99670.29
2018-04-30T08:55:25.114Z,99673.37
2018-04-30T08:57:52.750Z,99666.90
2018-04-30T09:00:20.455Z,99660.55
2018-04-30T09:02:48.032Z,99653.95
2018-04-30T09:05:15.722Z,99643.69
2018-04-30T09:07:43.330Z,99640.03
2018-04-30T09:10:10.958Z,99630.73
2018-04-30T09:12:38.615Z,99633.25
2018-04-30T09:15:06.271Z,99632.51
2018-04-30T09:17:33.932Z,99629.03
2018-04-30T09:20:01.603Z,99630.78
2018-04-30T09:22:29.228Z,99619.62
2018-04-30T09:24:56.864Z,99616.86
2018-04-30T09:27:24.582Z,99623.75
2018-04-30T09:29:52.228Z,99625.11
2018-04-30T09:32:19.842Z,99625.65
2018-04-30T09:34:47.574Z,99622.10
2018-04-30T09:37:15.242Z,99618.52
2018-04-30T09:39:42.884Z,99612.80
2018-04-30T09:42:10.558Z,99610.96
2018-04-30T09:44:38.195Z,99603.34
2018-04-30T09:47:05.891Z,99600.67
2018-04-30T09:49:33.536Z,99594.47
2018-04-30T09:52:01.147Z,99593.20
2018-04-30T09:54:28.774Z,99598.47
2018-04-30T09:56:56.436Z,99599.05
2018-04-30T09:59:24.070Z,99604.92
2018-04-30T10:01:51.683Z,99603.61
2018-04-30T10:04:19.299Z,99607.25
2018-04-30T10:06:46.958Z,99595.44
2018-04-30T10:09:14.574Z,99601.41
2018-04-30T10:11:42.310Z,99600.61
2018-04-30T10:14:09.927Z,99597.41
2018-04-30T10:16:37.563Z,99601.53
2018-04-30T10:19:05.199Z,99595.08
2018-04-30T10:21:32.835Z,99600.39
2018-04-30T10:24:00.526Z,99600.97
2018-04-30T10:26:28.168Z,99610.71
2018-04-30T10:28:55.783Z,99615.55
2018-04-30T10:31:23.506Z,99606.35
2018-04-30T10:33:51.121Z,99609.36
2018-04-30T10:36:18.787Z,99616.73
2018-04-30T10:38:46.494Z,99609.05
2018-04-30T10:41:14.135Z,99602.26
2018-04-30T10:43:41.746Z,99599.30
2018-04-30T10:46:09.495Z,99598.67
2018-04-30T10:48:37.038Z,99591.69
2018-04-30T10:51:04.675Z,99598.93
2018-04-30T10:53:32.283Z,99601.88
2018-04-30T10:55:59.926Z,99600.06
2018-04-30T10:58:27.591Z,99607.53
2018-04-30T11:00:55.255Z,99611.80
2018-04-30T11:03:22.866Z,99610.56
2018-04-30T11:05:50.503Z,99627.68
2018-04-30T11:08:18.115Z,99630.83
2018-04-30T11:10:45.801Z,99630.66
2018-04-30T11:13:13.406Z,99630.36
2018-04-30T11:15:41.038Z,99629.79
2018-04-30T11:18:08.643Z,99639.84
2018-04-30T11:20:36.288Z,99645.31
2018-04-30T11:23:03.907Z,99648.52
2018-04-30T11:25:31.543Z,99648.58
2018-04-30T11:27:59.164Z,99660.75
2018-04-30T11:30:26.790Z,99670.74
2018-04-30T11:32:54.452Z,99666.19
2018-04-30T11:35:22.098Z,99674.28
2018-04-30T11:37:49.782Z,99672.95
2018-04-30T11:40:17.550Z,99673.67
2018-04-30T11:42:45.208Z,99681.28
2018-04-30T11:45:12.841Z,99684.43
2018-04-30T11:47:40.539Z,99686.81
2018-04-30T11:50:08.171Z,99687.20
2018-04-30T11:52:35.854Z,99690.37
2018-04-30T11:55:03.466Z,99686.86
2018-04-30T11:57:31.115Z,99696.09
2018-04-30T11:59:58.744Z,99693.85
2018-04-30T12:02:26.443Z,99688.77
2018-04-30T12:04:54.115Z,99693.27
2018-04-30T12:07:21.703Z,99685.78
2018-04-30T12:09:49.362Z,99692.25
2018-04-30T12:12:17.027Z,99699.95
2018-04-30T12:14:44.659Z,99686.94
2018-04-30T12:17:12.303Z,99693.19
2018-04-30T12:19:39.931Z,99697.11
2018-04-30T12:22:07.625Z,99695.59
2018-04-30T12:24:35.214Z,99715.11
2018-04-30T12:27:02.856Z,99719.95
2018-04-30T12:29:30.471Z,99711.64
2018-04-30T12:31:58.110Z,99728.44
2018-04-30T12:34:25.746Z,99743.13
2018-04-30T12:36:53.478Z,99747.22
2018-04-30T12:39:21.124Z,99760.56
2018-04-30T12:41:48.813Z,99748.44
2018-04-30T12:44:16.434Z,99754.05
2018-04-30T12:46:44.139Z,99743.98
2018-04-30T12:49:11.764Z,99739.48
2018-04-30T12:51:39.406Z,99756.84
2018-04-30T12:54:07.074Z,99759.11
2018-04-30T12:56:34.735Z,99761.62
2018-04-30T12:59:02.364Z,99771.56
2018-04-30T13:01:30.023Z,99793.33
2018-04-30T13:03:57.656Z,99805.30
2018-04-30T13:06:25.298Z,99807.95
2018-04-30T13:08:52.987Z,99815.66
2018-04-30T13:11:20.631Z,99819.94
2018-04-30T13:13:48.318Z,99830.41
2018-04-30T13:16:16.088Z,99851.55
2018-04-30T13:18:43.748Z,99862.35
2018-04-30T13:21:11.407Z,99873.91
2018-04-30T13:23:39.062Z,99885.00
2018-04-30T13:26:06.691Z,99893.80
2018-04-30T13:28:34.404Z,99894.69
2018-04-30T13:31:02.050Z,99908.92
2018-04-30T13:33:29.709Z,99911.36
2018-04-30T13:36:01.171Z,99916.29
2018-04-30T13:38:28.801Z,99937.45
2018-04-30T13:40:56.432Z,99955.02
2018-04-30T13:43:24.059Z,99958.05
2018-04-30T13:45:51.668Z,99961.20
2018-04-30T13:48:19.382Z,99962.17
2018-04-30T13:50:47.048Z,99942.84
2018-04-30T13:53:14.683Z,99929.19
2018-04-30T13:55:42.290Z,99885.66
2018-04-30T13:58:10.032Z,99851.35
2018-04-30T14:00:37.635Z,99856.81
2018-04-30T14:03:05.986Z,99899.78
2018-04-30T14:05:33.603Z,99939.95
2018-04-30T14:08:01.292Z,99943.11
2018-04-30T14:10:28.953Z,99950.09
2018-04-30T14:12:56.621Z,99965.44
2018-04-30T14:15:24.297Z,99980.52
2018-04-30T14:17:51.930Z,99980.75
2018-04-30T14:20:19.530Z,99984.53
2018-04-30T14:22:47.271Z,99990.64
2018-04-30T14:25:14.885Z,99996.30
2018-04-30T14:27:42.519Z,100004.12
2018-04-30T14:30:10.132Z,100011.47
2018-04-30T14:32:37.755Z,100022.74
2018-04-30T14:35:05.357Z,100023.05
2018-04-30T14:37:32.987Z,100025.29
2018-04-30T14:40:00.698Z,100023.67
2018-04-30T14:42:28.362Z,100032.05
2018-04-30T14:44:55.971Z,100034.12
2018-04-30T14:47:23.691Z,100037.36
2018-04-30T14:49:51.346Z,100034.83
2018-04-30T14:52:19.011Z,100029.36
2018-04-30T14:54:46.887Z,100018.13
2018-04-30T14:57:14.548Z,100018.05
2018-04-30T14:59:42.203Z,100023.13
2018-04-30T15:02:09.833Z,100031.75
2018-04-30T15:04:37.495Z,100039.00
2018-04-30T15:07:05.118Z,100040.94
2018-04-30T15:09:32.723Z,100044.20
2018-04-30T15:12:00.414Z,100034.28
2018-04-30T15:14:28.038Z,100031.03
2018-04-30T15:16:55.646Z,100026.23
2018-04-30T15:19:23.295Z,100030.10
2018-04-30T15:21:50.958Z,100032.70
2018-04-30T15:24:18.628Z,100032.77
2018-04-30T15:26:46.281Z,100030.34
2018-04-30T15:29:13.942Z,100039.28
2018-04-30T15:31:41.556Z,100051.67
2018-04-30T15:34:09.185Z,100058.68
2018-04-30T15:36:36.795Z,100050.39
2018-04-30T15:39:04.426Z,100060.87
2018-04-30T15:41:32.044Z,100055.61
2018-04-30T15:43:59.682Z,100056.12
2018-04-30T15:46:27.282Z,100063.98
2018-04-30T15:48:54.910Z,100066.42
2018-04-30T15:51:22.510Z,100070.25
2018-04-30T15:53:50.158Z,100068.84
2018-04-30T15:56:17.761Z,100077.97
2018-04-30T15:58:45.485Z,100080.41
2018-04-30T16:01:13.159Z,100082.62
2018-04-30T16:03:40.810Z,100089.88
2018-04-30T16:06:08.410Z,100086.23
2018-04-30T16:08:36.052Z,100090.81
2018-04-30T16:11:03.703Z,100088.37
2018-04-30T16:13:31.335Z,100088.88
2018-04-30T16:15:58.942Z,100085.20
2018-04-30T16:18:26.682Z,100087.28
2018-04-30T16:20:54.292Z,100081.48
2018-04-30T16:23:21.928Z,100078.85
2018-04-30T16:25:49.534Z,100082.43
2018-04-30T16:28:17.163Z,100082.22
2018-04-30T16:30:44.766Z,100080.43
2018-04-30T16:33:12.392Z,100088.47
2018-04-30T16:35:39.995Z,100088.72
2018-04-30T16:38:07.858Z,100096.49
2018-04-30T16:40:35.466Z,100102.98
2018-04-30T16:43:03.090Z,100104.85
2018-04-30T16:45:30.766Z,100100.97
2018-04-30T16:47:58.403Z,100098.93
2018-04-30T16:50:26.006Z,100114.44
2018-04-30T16:52:53.660Z,100112.50
2018-04-30T16:55:21.316Z,100113.12
2018-04-30T16:57:48.988Z,100116.80
2018-04-30T17:00:16.651Z,100113.55
2018-04-30T17:02:44.259Z,100121.02
2018-04-30T17:05:11.971Z,100122.23
2018-04-30T17:07:39.574Z,100127.61
2018-04-30T17:10:07.208Z,100131.60
2018-04-30T17:12:34.815Z,100128.70
2018-04-30T17:15:02.520Z,100141.48
2018-04-30T17:17:30.183Z,100147.01
2018-04-30T17:19:57.791Z,100155.52
2018-04-30T17:22:25.429Z,100154.44
2018-04-30T17:24:53.056Z,100165.15
2018-04-30T17:27:20.722Z,100164.87
2018-04-30T17:29:48.360Z,100166.36
2018-04-30T17:32:15.966Z,100161.21
2018-04-30T17:34:43.715Z,100166.19
2018-04-30T17:37:11.431Z,100179.14
2018-04-30T17:39:39.070Z,100181.52
2018-04-30T17:42:06.704Z,100182.66
2018-04-30T17:44:34.343Z,100185.06
2018-04-30T17:47:02.089Z,100183.52
2018-04-30T17:49:29.674Z,100186.85
2018-04-30T17:51:57.350Z,100191.48
2018-04-30T17:54:24.975Z,100195.73
2018-04-30T17:56:52.585Z,100196.37
2018-04-30T17:59:20.234Z,100201.89
2018-04-30T18:01:47.839Z,100203.00
2018-04-30T18:04:15.553Z,100213.77
2018-04-30T18:06:43.292Z,100213.57
2018-04-30T18:09:10.896Z,100221.70
2018-04-30T18:11:38.498Z,100222.33
2018-04-30T18:14:06.129Z,100224.73
2018-04-30T18:16:33.770Z,100237.63
2018-04-30T18:19:01.411Z,100234.32
2018-04-30T18:21:29.028Z,100236.28
2018-04-30T18:23:56.655Z,100244.33
2018-04-30T18:26:24.323Z,100242.74
2018-04-30T18:28:51.950Z,100239.84
2018-04-30T18:31:19.559Z,100250.05
2018-04-30T18:33:47.188Z,100249.75
2018-04-30T18:36:14.867Z,100257.70
2018-04-30T18:38:42.691Z,100259.99
2018-04-30T18:41:10.274Z,100254.44
2018-04-30T18:43:37.884Z,100256.76
2018-04-30T18:46:05.510Z,100264.32
2018-04-30T18:48:33.111Z,100269.23
2018-04-30T18:51:00.835Z,100272.02
2018-04-30T18:53:28.438Z,100273.92
2018-04-30T18:55:56.163Z,100270.61
2018-04-30T18:58:23.770Z,100275.13
2018-04-30T19:00:51.399Z,100276.62
2018-04-30T19:03:19.042Z,100278.11
2018-04-30T19:05:46.768Z,100279.58
2018-04-30T19:08:14.471Z,100281.45
2018-04-30T19:10:42.108Z,100285.52
2018-04-30T19:13:09.727Z,100293.07
2018-04-30T19:15:37.363Z,100288.36
2018-04-30T19:18:04.970Z,100291.53
2018-04-30T19:20:32.606Z,100285.53
2018-04-30T19:23:00.986Z,100294.34
2018-04-30T19:25:28.723Z,100291.39
2018-04-30T19:27:56.327Z,100291.50
2018-04-30T19:30:24.056Z,100294.63
2018-04-30T19:32:51.658Z,100301.72
2018-04-30T19:35:19.382Z,100300.48
2018-04-30T19:37:47.048Z,100297.55
2018-04-30T19:40:14.710Z,100296.74
2018-04-30T19:42:42.325Z,100304.27
2018-04-30T19:45:10.027Z,100307.41
2018-04-30T19:47:37.696Z,100306.63
2018-04-30T19:50:05.346Z,100310.64
2018-04-30T19:52:32.950Z,100310.69
2018-04-30T19:55:00.679Z,100311.19
2018-04-30T19:57:28.291Z,100309.08
2018-04-30T19:59:55.926Z,100310.45
2018-04-30T20:02:23.529Z,100312.66
2018-04-30T20:04:51.206Z,100308.78
2018-04-30T20:07:18.882Z,100317.53
2018-04-30T20:09:46.490Z,100319.78
2018-04-30T20:12:14.217Z,100319.36
2018-04-30T20:14:41.817Z,100321.59
2018-04-30T20:17:09.462Z,100314.67
2018-04-30T20:19:37.072Z,100320.36
2018-04-30T20:22:04.703Z,100318.23
2018-04-30T20:24:32.422Z,100321.31
2018-04-30T20:27:00.115Z,100322.66
2018-04-30T20:29:27.719Z,100321.84
2018-04-30T20:31:55.342Z,100322.73
2018-04-30T20:34:22.967Z,100326.71
2018-04-30T20:36:50.636Z,100323.70
2018-04-30T20:39:18.247Z,100328.98
2018-04-30T20:41:45.873Z,100324.23
2018-04-30T20:44:13.484Z,100328.66
2018-04-30T20:46:41.193Z,100326.12
2018-04-30T20:49:08.802Z,100322.70
2018-04-30T20:51:36.426Z,100326.66
2018-04-30T20:54:04.031Z,100324.98
2018-04-30T20:56:31.658Z,100332.44
2018-04-30T20:58:59.266Z,100338.13
2018-04-30T21:01:26.947Z,100341.20
2018-04-30T21:03:54.560Z,100342.97
2018-04-30T21:06:22.271Z,100348.23
2018-04-30T21:09:01.727Z,100341.28
2018-04-30T21:11:29.362Z,100339.58
2018-04-30T21:13:57.034Z,100342.20
2018-04-30T21:16:24.798Z,100340.47
2018-04-30T21:18:52.439Z,100345.68
2018-04-30T21:21:20.051Z,100343.10
2018-04-30T21:23:47.688Z,100352.68
2018-04-30T21:26:15.871Z,100352.23
2018-04-30T21:28:43.498Z,100348.34
2018-04-30T21:31:11.186Z,100351.83
2018-04-30T21:33:38.814Z,100354.01
2018-04-30T21:36:06.419Z,100349.68
2018-04-30T21:38:34.070Z,100348.41
2018-04-30T21:41:01.748Z,100349.70
2018-04-30T21:43:29.397Z,100348.84
2018-04-30T21:45:57.008Z,100348.42
2018-04-30T21:48:24.729Z,100347.58
2018-04-30T21:50:52.352Z,100354.11
2018-04-30T21:53:19.983Z,100357.19
2018-04-30T21:55:47.596Z,100355.89
2018-04-30T21:58:15.266Z,100358.95
2018-04-30T22:00:42.871Z,100351.17
2018-04-30T22:03:10.520Z,100356.84
2018-04-30T22:05:38.144Z,100359.48
2018-04-30T22:08:05.783Z,100363.39
2018-04-30T22:10:33.394Z,100359.95
2018-04-30T22:13:01.018Z,100360.39
2018-04-30T22:15:28.628Z,100356.96
2018-04-30T22:17:56.372Z,100357.81
2018-04-30T22:20:24.026Z,100359.13
2018-04-30T22:22:51.695Z,100365.23
2018-04-30T22:25:19.359Z,100361.30
2018-04-30T22:27:46.986Z,100358.70
2018-04-30T22:30:14.674Z,100359.59
2018-04-30T22:32:42.274Z,100356.97
2018-04-30T22:35:09.997Z,100356.55
2018-04-30T22:37:37.598Z,100359.19
2018-04-30T22:40:05.223Z,100354.41
2018-04-30T22:42:32.826Z,100355.27
2018-04-30T22:45:00.459Z,100351.81
2018-04-30T22:47:28.108Z,100363.55
2018-04-30T22:49:55.771Z,100367.92
2018-04-30T22:52:23.375Z,100373.12
2018-04-30T22:54:51.008Z,100371.41
2018-04-30T22:57:18.616Z,100372.27
2018-04-30T22:59:46.242Z,100371.44
2018-04-30T23:02:13.842Z,100368.84
2018-04-30T23:04:41.470Z,100366.64
2018-04-30T23:07:09.112Z,100369.23
2018-04-30T23:09:36.771Z,100370.11
2018-04-30T23:12:04.375Z,100366.22
2018-04-30T23:14:32.002Z,100357.53
2018-04-30T23:16:59.655Z,100363.60
2018-04-30T23:19:27.283Z,100368.41
2018-04-30T23:21:54.886Z,100363.17
2018-04-30T23:24:22.510Z,100356.69
2018-04-30T23:26:50.122Z,100361.02
2018-04-30T23:29:17.844Z,100366.22
2018-04-30T23:31:45.522Z,100359.73
2018-04-30T23:34:13.186Z,100351.48
2018-04-30T23:36:40.799Z,100355.40
2018-04-30T23:39:08.425Z,100353.22
2018-04-30T23:41:36.030Z,100351.91
2018-04-30T23:44:03.674Z,100347.16
2018-04-30T23:46:31.298Z,100346.27
2018-04-30T23:48:58.953Z,100358.86
2018-04-30T23:51:26.583Z,100351.50
2018-04-30T23:53:54.186Z,100350.61
2018-04-30T23:56:21.847Z,100349.33
2018-04-30T23:58:49.450Z,100338.48
